createdAt,value
2023-04-10T00:00:49.289Z,0.67
2023-04-10T00:01:52.601Z,0.33
2023-04-10T00:02:56.139Z,0.67
2023-04-10T00:03:59.929Z,0.43
2023-04-10T00:05:03.980Z,0.50
2023-04-10T00:06:07.205Z,0.00
2023-04-10T00:07:10.527Z,0.33
2023-04-10T00:08:13.809Z,0.50
2023-04-10T00:09:17.071Z,0.00
2023-04-10T00:10:20.448Z,0.43
2023-04-10T00:11:23.663Z,0.86
2023-04-10T00:12:26.936Z,0.57
2023-04-10T00:13:30.089Z,0.00
2023-04-10T00:14:33.309Z,0.00
2023-04-10T00:15:36.596Z,0.00
2023-04-10T00:16:39.926Z,0.00
2023-04-10T00:17:43.066Z,0.00
2023-04-10T00:18:46.243Z,0.00
2023-04-10T00:19:49.321Z,0.00
2023-04-10T00:20:52.401Z,0.33
2023-04-10T00:21:55.583Z,0.67
2023-04-10T00:22:58.662Z,0.00
2023-04-10T00:24:01.869Z,0.00
2023-04-10T00:25:04.926Z,0.00
2023-04-10T00:26:08.108Z,0.00
2023-04-10T00:27:11.243Z,0.00
2023-04-10T00:28:14.482Z,0.00
2023-04-10T00:29:17.855Z,0.00
2023-04-10T00:30:21.128Z,0.43
2023-04-10T00:31:24.250Z,0.57
2023-04-10T00:32:27.548Z,0.43
2023-04-10T00:33:30.807Z,0.57
2023-04-10T00:34:34.085Z,0.00
2023-04-10T00:35:37.521Z,0.00
2023-04-10T00:36:40.743Z,0.00
2023-04-10T00:37:44.028Z,0.00
2023-04-10T00:38:47.209Z,0.00
2023-04-10T00:39:50.396Z,0.00
2023-04-10T00:40:53.881Z,0.00
2023-04-10T00:41:56.963Z,0.00
2023-04-10T00:43:00.142Z,0.00
2023-04-10T00:44:03.628Z,0.00
2023-04-10T00:45:06.680Z,0.00
2023-04-10T00:46:10.154Z,0.57
2023-04-10T00:47:13.397Z,0.71
2023-04-10T00:48:16.671Z,0.33
2023-04-10T00:49:20.052Z,0.00
2023-04-10T00:50:23.235Z,0.43
2023-04-10T00:51:26.578Z,0.43
2023-04-10T00:52:29.909Z,0.00
2023-04-10T00:53:33.295Z,0.00
2023-04-10T00:54:36.585Z,0.29
2023-04-10T00:55:39.889Z,0.43
2023-04-10T00:56:43.146Z,0.57
2023-04-10T00:57:46.563Z,0.00
2023-04-10T00:58:49.713Z,0.00
2023-04-10T00:59:52.795Z,0.43
2023-04-10T01:00:56.086Z,1.00
2023-04-10T01:01:59.579Z,0.57
2023-04-10T01:03:03.028Z,0.00
2023-04-10T01:04:06.376Z,0.00
2023-04-10T01:05:09.728Z,0.00
2023-04-10T01:06:12.698Z,0.00
2023-04-10T01:07:15.795Z,0.00
2023-04-10T01:08:18.757Z,0.00
2023-04-10T01:09:21.834Z,0.50
2023-04-10T01:10:25.128Z,0.57
2023-04-10T01:11:28.207Z,0.00
2023-04-10T01:12:31.178Z,0.00
2023-04-10T01:13:34.256Z,0.00
2023-04-10T01:14:37.295Z,0.17
2023-04-10T01:15:40.415Z,0.00
2023-04-10T01:16:43.750Z,0.14
2023-04-10T01:17:47.011Z,0.00
2023-04-10T01:18:50.288Z,0.00
2023-04-10T01:19:53.659Z,0.00
2023-04-10T01:20:56.939Z,0.00
2023-04-10T01:22:00.202Z,0.00
2023-04-10T01:23:03.598Z,0.00
2023-04-10T01:24:06.794Z,0.43
2023-04-10T01:25:10.177Z,0.57
2023-04-10T01:26:13.467Z,0.00
2023-04-10T01:27:16.744Z,0.00
2023-04-10T01:28:20.132Z,0.00
2023-04-10T01:29:23.379Z,0.00
2023-04-10T01:30:26.708Z,0.00
2023-04-10T01:31:29.679Z,0.43
2023-04-10T01:32:33.182Z,0.57
2023-04-10T01:33:36.461Z,0.00
2023-04-10T01:34:39.793Z,0.00
2023-04-10T01:35:43.068Z,0.00
2023-04-10T01:36:46.309Z,0.00
2023-04-10T01:37:49.595Z,0.00
2023-04-10T01:38:52.878Z,0.00
2023-04-10T01:39:56.160Z,0.00
2023-04-10T01:40:59.471Z,0.00
2023-04-10T01:42:02.727Z,0.00
2023-04-10T01:43:05.817Z,0.00
2023-04-10T01:44:08.784Z,0.00
2023-04-10T01:45:11.963Z,0.29
2023-04-10T01:46:14.869Z,0.17
2023-04-10T01:47:18.024Z,0.00
2023-04-10T01:48:21.108Z,0.00
2023-04-10T01:49:24.180Z,0.00
2023-04-10T01:50:27.369Z,0.00
2023-04-10T01:51:30.348Z,0.00
2023-04-10T01:52:33.523Z,0.00
2023-04-10T01:53:36.618Z,0.00
2023-04-10T01:54:39.795Z,0.00
2023-04-10T01:55:42.877Z,0.43
2023-04-10T01:56:45.819Z,0.00
2023-04-10T01:57:48.845Z,0.00
2023-04-10T01:58:51.896Z,0.00
2023-04-10T01:59:56.203Z,0.00
2023-04-10T02:00:59.368Z,0.00
2023-04-10T02:02:02.662Z,0.33
2023-04-10T02:03:05.950Z,0.67
2023-04-10T02:04:09.118Z,0.43
2023-04-10T02:05:12.327Z,0.67
2023-04-10T02:06:15.304Z,0.00
2023-04-10T02:07:18.281Z,0.00
2023-04-10T02:08:21.363Z,0.00
2023-04-10T02:09:24.462Z,0.00
2023-04-10T02:10:27.626Z,0.00
2023-04-10T02:11:30.691Z,0.00
2023-04-10T02:12:33.877Z,0.00
2023-04-10T02:13:36.818Z,0.00
2023-04-10T02:14:39.828Z,0.00
2023-04-10T02:15:42.926Z,0.00
2023-04-10T02:16:46.000Z,0.00
2023-04-10T02:17:50.309Z,0.33
2023-04-10T02:18:53.477Z,0.62
2023-04-10T02:19:56.556Z,0.83
2023-04-10T02:20:59.755Z,0.33
2023-04-10T02:22:02.711Z,0.00
2023-04-10T02:23:11.126Z,0.00
2023-04-10T02:24:14.398Z,0.00
2023-04-10T02:25:19.286Z,0.00
2023-04-10T02:26:22.411Z,0.00
2023-04-10T02:27:25.791Z,0.00
2023-04-10T02:28:29.181Z,0.00
2023-04-10T02:29:32.383Z,0.00
2023-04-10T02:30:35.653Z,0.00
2023-04-10T02:31:38.963Z,0.00
2023-04-10T02:32:42.369Z,0.29
2023-04-10T02:33:45.609Z,0.00
2023-04-10T02:34:49.199Z,0.00
2023-04-10T02:35:52.516Z,0.00
2023-04-10T02:36:55.758Z,0.00
2023-04-10T02:37:59.038Z,0.00
2023-04-10T02:39:02.329Z,0.00
2023-04-10T02:40:05.509Z,0.00
2023-04-10T02:41:08.823Z,0.00
2023-04-10T02:42:11.977Z,0.00
2023-04-10T02:43:15.166Z,0.00
2023-04-10T02:44:18.545Z,0.00
2023-04-10T02:45:22.227Z,0.00
2023-04-10T02:46:25.670Z,0.00
2023-04-10T02:47:28.927Z,0.00
2023-04-10T02:48:32.204Z,0.00
2023-04-10T02:49:35.481Z,0.00
2023-04-10T02:50:38.767Z,0.00
2023-04-10T02:51:42.051Z,0.00
2023-04-10T02:52:45.439Z,0.00
2023-04-10T02:53:48.737Z,0.00
2023-04-10T02:54:52.107Z,0.00
2023-04-10T02:55:55.499Z,0.00
2023-04-10T02:56:58.782Z,0.00
2023-04-10T02:58:02.038Z,0.00
2023-04-10T02:59:05.349Z,0.00
2023-04-10T03:00:08.633Z,0.00
2023-04-10T03:01:11.934Z,0.00
2023-04-10T03:02:15.267Z,0.00
2023-04-10T03:03:18.834Z,0.43
2023-04-10T03:04:22.353Z,0.57
2023-04-10T03:05:25.582Z,0.00
2023-04-10T03:06:28.855Z,0.00
2023-04-10T03:07:32.289Z,0.00
2023-04-10T03:08:36.678Z,0.00
2023-04-10T03:09:39.843Z,0.00
2023-04-10T03:10:42.651Z,0.00
2023-04-10T03:11:45.782Z,0.00
2023-04-10T03:12:48.945Z,0.00
2023-04-10T03:13:52.356Z,0.00
2023-04-10T03:14:55.736Z,0.00
2023-04-10T03:15:58.840Z,0.00
2023-04-10T03:17:01.902Z,0.00
2023-04-10T03:18:04.910Z,0.00
2023-04-10T03:19:08.051Z,0.00
2023-04-10T03:20:11.351Z,0.00
2023-04-10T03:21:14.622Z,0.00
2023-04-10T03:22:17.924Z,0.00
2023-04-10T03:23:21.292Z,0.00
2023-04-10T03:24:24.575Z,0.00
2023-04-10T03:25:27.760Z,0.00
2023-04-10T03:26:31.050Z,0.00
2023-04-10T03:27:34.295Z,0.00
2023-04-10T03:28:37.415Z,0.00
2023-04-10T03:29:40.699Z,0.14
2023-04-10T03:30:43.996Z,0.00
2023-04-10T03:31:47.197Z,0.00
2023-04-10T03:32:50.548Z,0.00
2023-04-10T03:33:53.993Z,0.00
2023-04-10T03:34:57.418Z,0.43
2023-04-10T03:36:00.810Z,0.57
2023-04-10T03:37:04.104Z,0.00
2023-04-10T03:38:07.485Z,0.00
2023-04-10T03:39:10.856Z,0.00
2023-04-10T03:40:14.050Z,0.00
2023-04-10T03:41:17.330Z,0.00
2023-04-10T03:42:20.719Z,0.33
2023-04-10T03:43:23.998Z,0.57
2023-04-10T03:44:27.388Z,0.00
2023-04-10T03:45:30.654Z,0.00
2023-04-10T03:46:33.991Z,0.43
2023-04-10T03:47:37.258Z,0.57
2023-04-10T03:48:40.384Z,0.00
2023-04-10T03:49:46.984Z,0.43
2023-04-10T03:50:50.270Z,1.00
2023-04-10T03:51:54.540Z,0.29
2023-04-10T03:52:57.854Z,0.00
2023-04-10T03:54:01.054Z,0.17
2023-04-10T03:55:04.422Z,0.00
2023-04-10T03:56:07.712Z,0.00
2023-04-10T03:57:10.905Z,0.00
2023-04-10T03:58:14.172Z,0.00
2023-04-10T03:59:17.561Z,0.00
2023-04-10T04:00:20.850Z,0.00
2023-04-10T04:01:24.057Z,0.14
2023-04-10T04:02:27.457Z,0.57
2023-04-10T04:03:31.388Z,0.00
2023-04-10T04:04:34.888Z,0.00
2023-04-10T04:05:38.236Z,0.00
2023-04-10T04:06:41.482Z,0.00
2023-04-10T04:07:44.776Z,0.00
2023-04-10T04:08:47.742Z,0.00
2023-04-10T04:09:50.722Z,0.00
2023-04-10T04:10:55.309Z,0.43
2023-04-10T04:11:57.891Z,1.00
2023-04-10T04:13:01.181Z,0.00
2023-04-10T04:14:04.163Z,0.00
2023-04-10T04:15:07.236Z,0.00
2023-04-10T04:16:10.406Z,0.00
2023-04-10T04:17:13.498Z,0.67
2023-04-10T04:18:16.469Z,0.00
2023-04-10T04:19:19.556Z,0.00
2023-04-10T04:20:33.266Z,0.00
2023-04-10T04:21:36.157Z,0.00
2023-04-10T04:22:39.335Z,0.00
2023-04-10T04:23:42.365Z,0.33
2023-04-10T04:24:45.395Z,0.67
2023-04-10T04:25:48.479Z,0.00
2023-04-10T04:26:51.746Z,0.00
2023-04-10T04:27:54.734Z,0.00
2023-04-10T04:28:57.851Z,0.00
2023-04-10T04:30:01.119Z,0.33
2023-04-10T04:31:04.491Z,0.00
2023-04-10T04:32:07.576Z,0.00
2023-04-10T04:33:10.646Z,0.00
2023-04-10T04:34:13.949Z,0.33
2023-04-10T04:35:16.909Z,0.33
2023-04-10T04:36:19.995Z,0.00
2023-04-10T04:37:22.971Z,0.00
2023-04-10T04:38:25.953Z,0.43
2023-04-10T04:39:29.043Z,0.67
2023-04-10T04:40:31.955Z,0.33
2023-04-10T04:41:43.577Z,1.00
2023-04-10T04:42:46.657Z,1.50
2023-04-10T04:43:55.483Z,0.57
2023-04-10T04:44:59.063Z,0.00
2023-04-10T04:46:02.396Z,0.00
2023-04-10T04:47:05.951Z,0.33
2023-04-10T04:48:09.227Z,0.57
2023-04-10T04:49:12.420Z,0.00
2023-04-10T04:50:15.790Z,0.43
2023-04-10T04:51:19.178Z,0.86
2023-04-10T04:52:22.359Z,0.00
2023-04-10T04:53:25.438Z,0.00
2023-04-10T04:54:28.724Z,0.43
2023-04-10T04:55:31.930Z,1.43
2023-04-10T04:56:35.106Z,1.57
2023-04-10T04:57:38.270Z,0.57
2023-04-10T04:58:41.554Z,0.33
2023-04-10T04:59:44.837Z,1.71
2023-04-10T05:00:48.097Z,1.14
2023-04-10T05:01:51.593Z,0.00
2023-04-10T05:02:55.144Z,0.43
2023-04-10T05:03:58.752Z,1.00
2023-04-10T05:05:02.183Z,0.43
2023-04-10T05:06:05.342Z,0.57
2023-04-10T05:07:08.679Z,0.00
2023-04-10T05:08:12.234Z,0.43
2023-04-10T05:09:15.424Z,1.00
2023-04-10T05:10:18.704Z,1.29
2023-04-10T05:11:23.103Z,1.00
2023-04-10T05:12:26.110Z,0.50
2023-04-10T05:13:29.271Z,0.33
2023-04-10T05:14:32.464Z,1.86
2023-04-10T05:15:35.654Z,2.14
2023-04-10T05:16:38.922Z,1.00
2023-04-10T05:17:42.310Z,1.86
2023-04-10T05:18:45.624Z,1.71
2023-04-10T05:19:51.931Z,0.57
2023-04-10T05:20:55.040Z,1.12
2023-04-10T05:21:58.212Z,0.67
2023-04-10T05:23:01.403Z,0.00
2023-04-10T05:24:06.166Z,0.33
2023-04-10T05:25:09.400Z,0.13
2023-04-10T05:26:12.578Z,0.00
2023-04-10T05:27:15.859Z,0.57
2023-04-10T05:28:19.155Z,0.43
2023-04-10T05:29:22.528Z,0.57
2023-04-10T05:30:27.441Z,0.43
2023-04-10T05:31:30.914Z,0.50
2023-04-10T05:32:34.050Z,0.00
2023-04-10T05:33:37.306Z,0.43
2023-04-10T05:34:40.482Z,1.00
2023-04-10T05:35:43.807Z,0.57
2023-04-10T05:36:47.124Z,0.00
2023-04-10T05:37:53.699Z,0.43
2023-04-10T05:38:57.085Z,0.00
2023-04-10T05:40:00.322Z,0.43
2023-04-10T05:41:03.672Z,1.00
2023-04-10T05:42:06.964Z,1.00
2023-04-10T05:43:10.046Z,1.00
2023-04-10T05:44:14.356Z,0.57
2023-04-10T05:45:18.892Z,0.50
2023-04-10T05:46:22.474Z,1.00
2023-04-10T05:47:25.609Z,1.14
2023-04-10T05:48:28.620Z,0.57
2023-04-10T05:49:31.697Z,0.00
2023-04-10T05:50:34.772Z,0.33
2023-04-10T05:51:37.870Z,0.67
2023-04-10T05:52:44.533Z,0.00
2023-04-10T05:53:47.599Z,0.00
2023-04-10T05:54:50.667Z,0.00
2023-04-10T05:55:57.310Z,0.00
2023-04-10T05:57:00.210Z,0.50
2023-04-10T05:58:03.191Z,0.71
2023-04-10T05:59:06.429Z,1.14
2023-04-10T06:00:13.073Z,1.67
2023-04-10T06:01:16.072Z,0.50
2023-04-10T06:02:19.524Z,0.00
2023-04-10T06:03:23.190Z,0.25
2023-04-10T06:04:26.778Z,0.57
2023-04-10T06:05:30.124Z,0.00
2023-04-10T06:06:33.465Z,0.00
2023-04-10T06:07:36.849Z,0.43
2023-04-10T06:08:40.137Z,1.00
2023-04-10T06:09:43.514Z,0.57
2023-04-10T06:10:46.900Z,0.43
2023-04-10T06:11:50.191Z,0.86
2023-04-10T06:13:00.227Z,0.00
2023-04-10T06:14:03.638Z,0.50
2023-04-10T06:15:06.998Z,0.57
2023-04-10T06:16:10.225Z,1.00
2023-04-10T06:17:13.848Z,0.29
2023-04-10T06:18:17.671Z,0.86
2023-04-10T06:19:20.759Z,0.71
2023-04-10T06:20:23.998Z,0.86
2023-04-10T06:21:27.335Z,1.57
2023-04-10T06:22:30.605Z,1.43
2023-04-10T06:23:34.006Z,0.86
2023-04-10T06:24:37.193Z,1.43
2023-04-10T06:25:40.357Z,1.57
2023-04-10T06:26:43.599Z,1.00
2023-04-10T06:27:46.747Z,0.57
2023-04-10T06:28:50.420Z,0.00
2023-04-10T06:29:53.596Z,0.00
2023-04-10T06:30:56.685Z,0.00
2023-04-10T06:31:59.877Z,0.00
2023-04-10T06:33:04.491Z,0.00
2023-04-10T06:34:07.866Z,0.00
2023-04-10T06:35:11.149Z,0.29
2023-04-10T06:36:18.951Z,1.00
2023-04-10T06:37:21.830Z,1.00
2023-04-10T06:38:25.198Z,0.33
2023-04-10T06:39:28.197Z,0.67
2023-04-10T06:40:31.512Z,0.00
2023-04-10T06:41:34.853Z,0.00
2023-04-10T06:42:38.074Z,0.57
2023-04-10T06:43:41.575Z,0.00
2023-04-10T06:44:44.796Z,0.50
2023-04-10T06:45:48.279Z,0.67
2023-04-10T06:46:51.738Z,0.43
2023-04-10T06:47:54.902Z,0.57
2023-04-10T06:48:58.213Z,0.43
2023-04-10T06:50:01.353Z,0.14
2023-04-10T07:02:39.647Z,1.00
2023-04-10T07:03:42.848Z,1.00
2023-04-10T07:04:45.985Z,1.00
2023-04-10T07:05:49.523Z,0.57
2023-04-10T07:06:52.540Z,0.00
2023-04-10T07:07:55.527Z,0.33
2023-04-10T07:08:58.462Z,0.57
2023-04-10T07:10:01.505Z,0.00
2023-04-10T07:11:04.571Z,0.29
2023-04-10T07:12:07.637Z,0.00
2023-04-10T07:13:10.608Z,0.00
2023-04-10T07:14:14.091Z,0.00
2023-04-10T07:15:16.983Z,0.86
2023-04-10T07:16:19.981Z,1.57
2023-04-10T07:17:23.037Z,1.00
2023-04-10T07:18:26.015Z,0.00
2023-04-10T07:19:29.188Z,0.71
2023-04-10T07:20:32.364Z,1.57
2023-04-10T07:21:35.674Z,1.00
2023-04-10T07:22:38.639Z,1.43
2023-04-10T07:23:43.567Z,1.67
2023-04-10T07:24:46.539Z,1.00
2023-04-10T07:25:49.958Z,0.57
2023-04-10T07:26:53.009Z,0.43
2023-04-10T07:27:55.984Z,1.00
2023-04-10T07:28:59.052Z,1.33
2023-04-10T07:30:02.429Z,0.67
2023-04-10T07:31:05.417Z,0.00
2023-04-10T07:32:08.589Z,0.43
2023-04-10T07:33:11.944Z,1.86
2023-04-10T07:34:15.394Z,2.14
2023-04-10T07:35:18.362Z,1.00
2023-04-10T07:36:21.297Z,0.67
2023-04-10T07:37:24.523Z,0.83
2023-04-10T07:38:27.804Z,1.43
2023-04-10T07:39:30.879Z,1.14
2023-04-10T07:40:33.973Z,0.00
2023-04-10T07:41:37.189Z,0.43
2023-04-10T07:42:40.436Z,1.67
2023-04-10T07:43:44.531Z,1.67
2023-04-10T07:44:47.994Z,0.00
2023-04-10T07:45:51.137Z,0.43
2023-04-10T07:46:54.338Z,0.67
2023-04-10T07:47:57.344Z,1.29
2023-04-10T07:49:00.336Z,2.14
2023-04-10T07:50:03.637Z,1.86
2023-04-10T07:51:07.393Z,1.83
2023-04-10T07:52:10.287Z,2.00
2023-04-10T07:53:13.483Z,1.57
2023-04-10T07:54:16.662Z,1.33
2023-04-10T07:55:20.044Z,2.00
2023-04-10T07:56:25.241Z,1.71
2023-04-10T07:57:31.661Z,1.00
2023-04-10T07:58:35.200Z,1.00
2023-04-10T07:59:38.311Z,0.57
2023-04-10T08:00:41.850Z,0.00
2023-04-10T08:01:45.117Z,0.86
2023-04-10T08:02:48.363Z,1.33
2023-04-10T08:03:52.297Z,1.43
2023-04-10T08:04:55.784Z,1.00
2023-04-10T08:06:00.557Z,0.57
2023-04-10T08:07:04.139Z,1.25
2023-04-10T08:08:07.547Z,1.57
2023-04-10T08:09:10.615Z,0.67
2023-04-10T08:10:14.012Z,0.67
2023-04-10T08:11:17.103Z,1.57
2023-04-10T08:12:20.738Z,0.57
2023-04-10T08:13:23.956Z,1.86
2023-04-10T08:14:27.134Z,2.14
2023-04-10T08:15:30.456Z,1.00
2023-04-10T08:16:34.239Z,0.57
2023-04-10T08:17:37.335Z,0.50
2023-04-10T08:18:40.281Z,1.00
2023-04-10T08:19:43.556Z,1.00
2023-04-10T08:20:49.326Z,1.00
2023-04-10T08:21:52.405Z,1.00
2023-04-10T08:23:03.010Z,1.00
2023-04-10T08:24:02.091Z,1.00
2023-04-10T08:25:06.245Z,1.00
2023-04-10T08:26:09.919Z,1.00
2023-04-10T08:27:13.099Z,1.00
2023-04-10T08:28:16.792Z,1.00
2023-04-10T08:29:20.385Z,1.43
2023-04-10T08:30:23.814Z,1.57
2023-04-10T08:31:27.662Z,1.00
2023-04-10T08:32:31.104Z,1.00
2023-04-10T08:33:34.309Z,1.43
2023-04-10T08:34:37.523Z,1.57
2023-04-10T08:35:40.810Z,1.43
2023-04-10T08:36:44.484Z,2.00
2023-04-10T08:37:53.616Z,1.57
2023-04-10T08:38:52.303Z,2.00
2023-04-10T08:39:55.687Z,1.86
2023-04-10T08:40:59.002Z,2.14
2023-04-10T08:42:02.338Z,1.86
2023-04-10T08:43:05.633Z,1.00
2023-04-10T08:44:09.018Z,1.43
2023-04-10T08:45:12.018Z,1.57
2023-04-10T08:46:15.421Z,1.67
2023-04-10T08:47:18.427Z,2.14
2023-04-10T08:48:25.157Z,1.57
2023-04-10T08:49:36.423Z,1.62
2023-04-10T08:50:39.791Z,1.50
2023-04-10T08:51:49.073Z,1.33
2023-04-10T08:52:52.408Z,1.50
2023-04-10T08:53:57.928Z,1.67
2023-04-10T08:55:04.092Z,1.00
2023-04-10T08:56:07.775Z,1.00
2023-04-10T08:57:11.119Z,1.00
2023-04-10T08:58:14.319Z,1.86
2023-04-10T08:59:17.333Z,3.00
2023-04-10T09:00:23.458Z,3.00
2023-04-10T09:01:24.757Z,2.00
2023-04-10T09:02:28.079Z,2.00
2023-04-10T09:03:31.798Z,2.29
2023-04-10T09:04:35.089Z,2.29
2023-04-10T09:05:38.690Z,2.57
2023-04-10T09:06:42.356Z,2.43
2023-04-10T09:07:47.067Z,3.29
2023-04-10T09:08:49.863Z,3.50
2023-04-10T09:09:53.553Z,3.14
2023-04-10T09:10:57.340Z,3.00
2023-04-10T09:12:01.235Z,4.00
2023-04-10T09:13:04.980Z,4.00
2023-04-10T09:14:08.314Z,4.57
2023-04-10T09:15:11.512Z,3.57
2023-04-10T09:16:15.172Z,3.14
2023-04-10T09:17:18.780Z,3.50
2023-04-10T09:18:22.397Z,2.57
2023-04-10T09:19:25.547Z,1.43
2023-04-10T09:20:28.950Z,2.00
2023-04-10T09:21:33.265Z,2.71
2023-04-10T09:22:36.753Z,2.50
2023-04-10T09:23:40.246Z,1.29
2023-04-10T09:24:43.734Z,1.00
2023-04-10T09:25:48.749Z,1.86
2023-04-10T09:26:51.734Z,2.50
2023-04-10T09:27:55.349Z,2.00
2023-04-10T09:28:58.618Z,2.00
2023-04-10T09:30:02.314Z,1.86
2023-04-10T09:31:05.775Z,2.00
2023-04-10T09:32:11.026Z,2.00
2023-04-10T09:33:14.197Z,2.00
2023-04-10T09:34:17.776Z,3.00
2023-04-10T09:35:21.277Z,3.71
2023-04-10T09:36:24.674Z,2.00
2023-04-10T09:37:27.852Z,2.00
2023-04-10T09:38:31.144Z,2.00
2023-04-10T09:39:34.520Z,1.57
2023-04-10T09:40:38.098Z,1.00
2023-04-10T09:41:41.996Z,1.86
2023-04-10T09:42:45.218Z,3.57
2023-04-10T09:43:48.248Z,3.00
2023-04-10T09:44:51.676Z,3.86
2023-04-10T09:45:54.685Z,5.43
2023-04-10T09:46:58.103Z,5.83
2023-04-10T09:48:01.687Z,5.14
2023-04-10T09:49:04.753Z,3.86
2023-04-10T09:50:09.191Z,5.17
2023-04-10T09:51:12.585Z,5.50
2023-04-10T09:52:15.581Z,5.00
2023-04-10T09:53:18.664Z,4.57
2023-04-10T09:54:22.226Z,4.67
2023-04-10T09:55:25.330Z,5.57
2023-04-10T09:56:28.931Z,5.33
2023-04-10T09:57:33.616Z,5.00
2023-04-10T09:58:37.207Z,5.00
2023-04-10T09:59:41.974Z,4.71
2023-04-10T10:00:45.005Z,3.62
2023-04-10T10:01:48.511Z,4.14
2023-04-10T10:02:52.384Z,4.29
2023-04-10T10:03:56.158Z,4.50
2023-04-10T10:04:59.480Z,3.86
2023-04-10T10:06:03.080Z,4.43
2023-04-10T10:07:06.273Z,5.00
2023-04-10T10:08:09.735Z,4.83
2023-04-10T10:09:13.141Z,4.00
2023-04-10T10:10:16.704Z,3.57
2023-04-10T10:11:20.018Z,3.71
2023-04-10T10:12:23.204Z,4.43
2023-04-10T10:13:26.619Z,3.57
2023-04-10T10:14:29.568Z,2.57
2023-04-10T10:15:33.054Z,2.67
2023-04-10T10:16:38.013Z,3.12
2023-04-10T10:17:40.995Z,1.50
2023-04-10T10:18:44.448Z,0.57
2023-04-10T10:19:47.623Z,1.29
2023-04-10T10:20:51.120Z,2.57
2023-04-10T10:22:01.984Z,2.43
2023-04-10T10:23:06.061Z,2.00
2023-04-10T10:24:09.673Z,1.50
2023-04-10T10:25:12.976Z,2.00
2023-04-10T10:26:16.241Z,2.00
2023-04-10T10:27:21.162Z,2.00
2023-04-10T10:28:25.386Z,2.50
2023-04-10T10:29:31.602Z,1.62
2023-04-10T10:30:35.018Z,1.25
2023-04-10T10:31:39.344Z,1.43
2023-04-10T10:32:42.811Z,1.50
2023-04-10T10:33:48.099Z,1.86
2023-04-10T10:34:52.249Z,2.00
2023-04-10T10:35:57.766Z,1.00
2023-04-10T10:37:00.761Z,1.50
2023-04-10T10:38:03.853Z,1.83
2023-04-10T10:39:06.825Z,1.43
2023-04-10T10:40:09.912Z,1.57
2023-04-10T10:41:12.941Z,1.00
2023-04-10T10:42:18.162Z,1.00
2023-04-10T10:43:23.049Z,1.12
2023-04-10T10:44:26.493Z,1.00
2023-04-10T10:45:29.968Z,1.00
2023-04-10T10:46:33.477Z,1.14
2023-04-10T10:47:36.455Z,0.43
2023-04-10T10:48:39.759Z,0.67
2023-04-10T10:49:44.294Z,0.43
2023-04-10T10:50:47.314Z,0.00
2023-04-10T10:51:50.326Z,0.00
2023-04-10T10:52:53.689Z,1.00
2023-04-10T10:53:56.661Z,0.57
2023-04-10T10:55:00.130Z,0.00
2023-04-10T10:56:03.441Z,0.29
2023-04-10T10:57:06.721Z,0.43
2023-04-10T10:58:11.718Z,1.00
2023-04-10T10:59:14.929Z,1.00
2023-04-10T11:00:18.421Z,0.67
2023-04-10T11:01:22.380Z,0.43
2023-04-10T11:02:26.184Z,0.14
2023-04-10T11:03:35.748Z,0.13
2023-04-10T11:04:38.891Z,1.00
2023-04-10T11:05:42.177Z,1.00
2023-04-10T11:06:45.361Z,1.00
2023-04-10T11:07:50.606Z,0.71
2023-04-10T11:08:53.902Z,1.00
2023-04-10T11:09:57.525Z,1.29
2023-04-10T11:11:03.456Z,1.57
2023-04-10T11:12:06.937Z,0.88
2023-04-10T11:13:10.223Z,0.29
2023-04-10T11:14:13.406Z,0.00
2023-04-10T11:15:16.605Z,0.50
2023-04-10T11:16:20.021Z,1.00
2023-04-10T11:17:23.393Z,1.43
2023-04-10T11:18:26.648Z,1.14
2023-04-10T11:19:31.662Z,0.00
2023-04-10T11:20:34.444Z,0.00
2023-04-10T11:21:41.896Z,0.43
2023-04-10T11:22:45.317Z,1.00
2023-04-10T11:23:48.402Z,0.83
2023-04-10T11:24:51.788Z,1.00
2023-04-10T11:25:54.921Z,1.29
2023-04-10T11:26:58.045Z,2.29
2023-04-10T11:28:03.130Z,2.14
2023-04-10T11:29:06.349Z,1.00
2023-04-10T11:30:09.541Z,0.57
2023-04-10T11:31:12.838Z,0.86
2023-04-10T11:32:17.651Z,1.86
2023-04-10T11:33:21.049Z,1.50
2023-04-10T11:34:24.302Z,1.00
2023-04-10T11:35:27.604Z,1.00
2023-04-10T11:36:30.978Z,1.00
2023-04-10T11:37:34.184Z,0.57
2023-04-10T11:38:37.538Z,0.43
2023-04-10T11:39:43.003Z,1.14
2023-04-10T11:40:46.261Z,1.00
2023-04-10T11:41:49.656Z,1.86
2023-04-10T11:42:52.825Z,2.71
2023-04-10T11:43:56.212Z,1.67
2023-04-10T11:44:59.500Z,1.86
2023-04-10T11:46:02.828Z,3.00
2023-04-10T11:47:06.025Z,3.00
2023-04-10T11:48:09.273Z,2.00
2023-04-10T11:49:12.432Z,2.14
2023-04-10T11:50:15.611Z,2.14
2023-04-10T11:51:19.087Z,2.00
2023-04-10T11:52:29.155Z,1.57
2023-04-10T11:53:32.535Z,2.00
2023-04-10T11:54:36.220Z,2.43
2023-04-10T11:55:39.712Z,2.00
2023-04-10T11:56:55.495Z,2.00
2023-04-10T11:57:59.924Z,2.25
2023-04-10T11:59:03.194Z,1.57
2023-04-10T12:00:06.472Z,2.00
2023-04-10T12:01:11.811Z,1.14
2023-04-10T12:02:15.453Z,1.00
2023-04-10T12:03:20.781Z,1.43
2023-04-10T12:04:23.926Z,1.25
2023-04-10T12:05:27.291Z,1.00
2023-04-10T12:06:30.573Z,1.00
2023-04-10T12:07:34.168Z,1.00
2023-04-10T12:08:37.460Z,1.00
2023-04-10T12:09:42.029Z,1.00
2023-04-10T12:10:45.269Z,1.00
2023-04-10T12:11:48.603Z,1.43
2023-04-10T12:12:51.916Z,2.00
2023-04-10T12:13:55.433Z,0.71
2023-04-10T12:14:58.459Z,0.43
2023-04-10T12:16:02.876Z,1.00
2023-04-10T12:17:06.284Z,1.50
2023-04-10T12:18:10.703Z,1.75
2023-04-10T12:19:14.200Z,1.00
2023-04-10T12:20:17.370Z,1.43
2023-04-10T12:21:20.770Z,1.29
2023-04-10T12:22:25.265Z,1.00
2023-04-10T12:23:28.466Z,1.50
2023-04-10T12:24:31.822Z,1.33
2023-04-10T12:25:34.956Z,0.43
2023-04-10T12:26:38.313Z,1.00
2023-04-10T12:27:42.591Z,1.14
2023-04-10T12:28:45.732Z,1.50
2023-04-10T12:29:48.780Z,1.00
2023-04-10T12:30:52.995Z,1.00
2023-04-10T12:31:56.371Z,0.50
2023-04-10T12:32:59.622Z,0.00
2023-04-10T12:34:02.834Z,0.00
2023-04-10T12:35:05.911Z,1.00
2023-04-10T12:36:09.097Z,0.67
2023-04-10T12:37:12.168Z,0.00
2023-04-10T12:38:15.355Z,0.00
2023-04-10T12:39:18.743Z,0.00
2023-04-10T12:40:21.790Z,0.71
2023-04-10T12:41:25.220Z,1.00
2023-04-10T12:42:28.495Z,0.00
2023-04-10T12:43:32.293Z,0.00
2023-04-10T12:44:35.588Z,0.43
2023-04-10T12:45:38.760Z,1.00
2023-04-10T12:46:42.271Z,1.43
2023-04-10T12:47:45.463Z,1.57
2023-04-10T12:48:49.221Z,1.43
2023-04-10T12:49:52.515Z,1.57
2023-04-10T12:50:55.996Z,1.00
2023-04-10T12:51:59.175Z,1.00
2023-04-10T12:53:02.366Z,1.00
2023-04-10T12:54:05.489Z,1.86
2023-04-10T12:55:08.956Z,2.57
2023-04-10T12:56:12.521Z,1.57
2023-04-10T12:57:15.906Z,1.00
2023-04-10T12:58:21.064Z,0.86
2023-04-10T12:59:30.328Z,1.00
2023-04-10T13:00:33.446Z,1.00
2023-04-10T13:01:36.894Z,2.00
2023-04-10T13:02:40.582Z,1.14
2023-04-10T13:03:46.093Z,0.43
2023-04-10T13:04:49.760Z,1.00
2023-04-10T13:05:53.039Z,1.00
2023-04-10T13:07:03.086Z,1.00
2023-04-10T13:08:06.247Z,0.75
2023-04-10T13:09:09.451Z,1.14
2023-04-10T13:10:12.884Z,0.67
2023-04-10T13:11:16.519Z,0.50
2023-04-10T13:12:19.904Z,1.00
2023-04-10T13:13:23.003Z,1.00
2023-04-10T13:14:26.475Z,1.00
2023-04-10T13:15:30.066Z,1.43
2023-04-10T13:16:33.629Z,1.57
2023-04-10T13:17:37.363Z,0.57
2023-04-10T13:18:41.053Z,0.86
2023-04-10T13:19:44.433Z,1.00
2023-04-10T13:20:47.913Z,1.00
2023-04-10T13:21:51.323Z,1.00
2023-04-10T13:22:54.721Z,1.00
2023-04-10T13:24:01.122Z,1.43
2023-04-10T13:25:04.555Z,1.50
2023-04-10T13:26:08.051Z,1.00
2023-04-10T13:27:11.354Z,1.00
2023-04-10T13:28:14.698Z,1.86
2023-04-10T13:29:18.086Z,2.14
2023-04-10T13:30:21.488Z,0.00
2023-04-10T13:31:24.813Z,1.57
2023-04-10T13:32:28.070Z,2.29
2023-04-10T13:33:31.199Z,1.00
2023-04-10T13:34:34.406Z,0.67
2023-04-10T13:35:37.737Z,1.00
2023-04-10T13:36:41.295Z,1.43
2023-04-10T13:37:44.741Z,1.00
2023-04-10T13:38:47.824Z,0.57
2023-04-10T13:39:50.926Z,0.33
2023-04-10T13:40:54.220Z,0.57
2023-04-10T13:41:57.474Z,0.43
2023-04-10T13:43:00.681Z,1.00
2023-04-10T13:44:04.077Z,1.00
2023-04-10T13:45:07.450Z,1.00
2023-04-10T13:46:10.630Z,1.00
2023-04-10T13:47:13.862Z,1.00
2023-04-10T13:48:17.577Z,0.57
2023-04-10T13:49:21.520Z,0.50
2023-04-10T13:50:25.104Z,0.43
2023-04-10T13:51:28.289Z,1.00
2023-04-10T13:52:31.344Z,1.00
2023-04-10T13:53:34.550Z,1.00
2023-04-10T13:54:37.704Z,0.57
2023-04-10T13:55:41.259Z,0.43
2023-04-10T13:56:44.673Z,1.43
2023-04-10T13:57:48.056Z,0.57
2023-04-10T13:58:51.616Z,0.86
2023-04-10T13:59:54.876Z,1.43
2023-04-10T14:00:58.266Z,1.57
2023-04-10T14:02:02.301Z,1.00
2023-04-10T14:03:05.741Z,1.43
2023-04-10T14:04:09.146Z,1.14
2023-04-10T14:05:12.277Z,0.57
2023-04-10T14:06:21.098Z,1.67
2023-04-10T14:07:24.305Z,0.62
2023-04-10T14:08:27.391Z,0.71
2023-04-10T14:09:30.770Z,1.00
2023-04-10T14:10:34.063Z,1.00
2023-04-10T14:11:37.194Z,1.43
2023-04-10T14:12:45.315Z,1.57
2023-04-10T14:13:48.395Z,1.00
2023-04-10T14:14:51.491Z,1.00
2023-04-10T14:15:54.583Z,0.43
2023-04-10T14:16:57.863Z,0.57
2023-04-10T14:18:01.049Z,0.00